createdAt,value
2023-01-22T00:00:43.756Z,37.60
2023-01-22T00:03:34.703Z,37.90
2023-01-22T00:06:06.594Z,39.90
2023-01-22T00:08:38.102Z,32.60
2023-01-22T00:11:12.693Z,37.00
2023-01-22T00:13:43.783Z,41.00
2023-01-22T00:16:18.529Z,38.40
2023-01-22T00:18:49.701Z,39.40
2023-01-22T00:21:24.558Z,35.80
2023-01-22T00:23:58.206Z,39.30
2023-01-22T00:26:29.346Z,39.40
2023-01-22T00:29:00.159Z,39.40
2023-01-22T00:31:32.305Z,37.00
2023-01-22T00:34:07.104Z,36.40
2023-01-22T00:36:37.839Z,42.40
2023-01-22T00:39:08.979Z,36.50
2023-01-22T00:41:40.264Z,41.00
2023-01-22T00:44:13.368Z,39.10
2023-01-22T00:46:46.847Z,37.10
2023-01-22T00:49:22.897Z,42.10
2023-01-22T00:51:54.176Z,36.50
2023-01-22T00:54:25.360Z,36.30
2023-01-22T00:57:00.113Z,36.00
2023-01-22T00:59:35.520Z,38.80
2023-01-22T01:02:09.525Z,35.10
2023-01-22T01:04:40.356Z,34.80
2023-01-22T01:07:13.995Z,38.30
2023-01-22T01:09:44.927Z,33.60
2023-01-22T01:12:17.615Z,40.50
2023-01-22T01:14:48.361Z,33.50
2023-01-22T01:17:19.351Z,40.60
2023-01-22T01:19:50.415Z,32.10
2023-01-22T01:22:21.619Z,34.40
2023-01-22T01:24:52.969Z,30.90
2023-01-22T01:27:23.749Z,30.90
2023-01-22T01:29:55.286Z,32.10
2023-01-22T01:32:26.270Z,27.60
2023-01-22T01:34:57.318Z,26.80
2023-01-22T01:37:29.715Z,29.00
2023-01-22T01:40:00.797Z,26.80
2023-01-22T01:42:34.105Z,25.00
2023-01-22T01:45:26.832Z,24.70
2023-01-22T01:48:03.206Z,27.90
2023-01-22T01:50:35.047Z,28.90
2023-01-22T01:53:05.900Z,28.00
2023-01-22T01:55:40.580Z,31.60
2023-01-22T01:58:14.849Z,28.90
2023-01-22T02:00:46.988Z,29.20
2023-01-22T02:03:18.152Z,29.30
2023-01-22T02:05:49.202Z,34.90
2023-01-22T02:08:21.752Z,35.60
2023-01-22T02:10:53.250Z,38.80
2023-01-22T02:13:26.047Z,36.20
2023-01-22T02:15:57.068Z,35.70
2023-01-22T02:18:30.954Z,30.10
2023-01-22T02:21:02.538Z,29.80
2023-01-22T02:23:37.823Z,28.00
2023-01-22T02:26:09.689Z,26.50
2023-01-22T02:28:40.912Z,24.40
2023-01-22T02:31:11.939Z,26.30
2023-01-22T02:33:43.018Z,24.40
2023-01-22T02:36:19.786Z,24.80
2023-01-22T02:38:52.293Z,21.90
2023-01-22T02:44:02.127Z,25.00
2023-01-22T02:46:39.714Z,26.50
2023-01-22T02:49:10.869Z,27.90
2023-01-22T02:51:44.291Z,24.10
2023-01-22T02:54:15.481Z,22.90
2023-01-22T02:57:07.144Z,24.50
2023-01-22T02:59:38.106Z,25.70
2023-01-22T03:02:09.657Z,24.40
2023-01-22T03:04:43.123Z,23.60
2023-01-22T03:07:14.263Z,27.10
2023-01-22T03:09:45.853Z,24.80
2023-01-22T03:12:17.008Z,20.30
2023-01-22T03:15:05.911Z,26.60
2023-01-22T03:17:54.823Z,25.90
2023-01-22T03:20:43.484Z,23.40
2023-01-22T03:23:27.684Z,26.30
2023-01-22T03:25:58.885Z,23.00
2023-01-22T03:28:29.927Z,22.90
2023-01-22T03:31:03.120Z,19.30
2023-01-22T03:33:35.288Z,23.20
2023-01-22T03:36:10.908Z,22.40
2023-01-22T03:38:45.715Z,24.70
2023-01-22T03:41:25.390Z,22.60
2023-01-22T03:43:56.740Z,23.60
2023-01-22T03:46:40.619Z,23.30
2023-01-22T03:49:14.088Z,20.30
2023-01-22T03:51:45.296Z,22.00
2023-01-22T03:54:19.556Z,23.30
2023-01-22T03:56:53.287Z,22.20
2023-01-22T03:59:32.021Z,21.80
2023-01-22T04:02:03.218Z,24.50
2023-01-22T04:04:50.903Z,22.60
2023-01-22T04:07:23.510Z,20.00
2023-01-22T04:12:24.712Z,24.80
2023-01-22T04:14:55.956Z,23.80
2023-01-22T04:17:27.027Z,24.00
2023-01-22T04:20:16.966Z,25.80
2023-01-22T04:22:56.219Z,20.70
2023-01-22T04:25:27.461Z,21.90
2023-01-22T04:27:58.710Z,23.50
2023-01-22T04:30:30.114Z,20.70
2023-01-22T04:33:13.239Z,22.90
2023-01-22T04:36:05.427Z,21.10
2023-01-22T04:38:36.357Z,22.70
2023-01-22T04:41:09.761Z,24.10
2023-01-22T04:43:40.867Z,22.30
2023-01-22T04:46:20.686Z,21.70
2023-01-22T04:48:51.778Z,22.10
2023-01-22T04:51:23.980Z,20.50
2023-01-22T04:53:55.394Z,24.40
2023-01-22T04:56:26.963Z,23.20
2023-01-22T04:58:58.806Z,20.90
2023-01-22T05:01:30.153Z,21.00
2023-01-22T05:04:03.633Z,19.40
2023-01-22T05:06:37.528Z,20.00
2023-01-22T05:09:08.498Z,19.50
2023-01-22T05:11:54.349Z,22.60
2023-01-22T05:14:25.389Z,23.90
2023-01-22T05:16:58.925Z,21.20
2023-01-22T05:19:32.941Z,22.80
2023-01-22T05:22:04.186Z,18.60
2023-01-22T05:24:36.562Z,24.30
2023-01-22T05:27:08.203Z,19.80
2023-01-22T05:29:49.298Z,18.10
2023-01-22T05:32:39.491Z,17.90
2023-01-22T05:35:11.333Z,19.80
2023-01-22T05:37:43.051Z,23.00
2023-01-22T05:40:14.990Z,24.60
2023-01-22T05:42:47.176Z,18.90
2023-01-22T05:45:18.261Z,19.90
2023-01-22T05:48:03.598Z,24.70
2023-01-22T05:50:46.134Z,20.70
2023-01-22T05:53:17.754Z,20.00
2023-01-22T05:55:48.546Z,19.30
2023-01-22T05:58:21.821Z,23.90
2023-01-22T06:00:54.841Z,18.20
2023-01-22T06:03:27.010Z,21.70
2023-01-22T06:06:01.800Z,21.40
2023-01-22T06:08:34.376Z,20.10
2023-01-22T06:11:06.204Z,19.20
2023-01-22T06:13:38.516Z,22.70
2023-01-22T06:16:19.063Z,19.40
2023-01-22T06:19:04.876Z,22.10
2023-01-22T06:21:43.913Z,20.40
2023-01-22T06:24:15.250Z,17.80
2023-01-22T06:26:46.385Z,19.40
2023-01-22T06:29:18.561Z,18.80
2023-01-22T06:31:52.495Z,19.10
2023-01-22T06:34:24.145Z,18.20
2023-01-22T06:36:55.573Z,17.20
2023-01-22T06:39:28.337Z,17.30
2023-01-22T06:42:07.555Z,19.20
2023-01-22T06:44:38.652Z,17.60
2023-01-22T06:47:09.669Z,18.10
2023-01-22T06:49:40.942Z,17.70
2023-01-22T06:52:11.805Z,19.30
2023-01-22T06:54:42.982Z,21.40
2023-01-22T06:57:14.089Z,18.80
2023-01-22T06:59:45.331Z,20.60
2023-01-22T07:02:18.456Z,20.40
2023-01-22T07:04:49.549Z,19.20
2023-01-22T07:07:23.598Z,21.70
2023-01-22T07:09:54.613Z,20.40
2023-01-22T07:12:26.182Z,21.60
2023-01-22T07:14:57.357Z,20.60
2023-01-22T07:17:31.324Z,17.80
2023-01-22T07:20:02.197Z,19.00
2023-01-22T07:22:42.140Z,18.00
2023-01-22T07:25:13.176Z,18.70
2023-01-22T07:27:44.016Z,18.50
2023-01-22T07:30:16.231Z,17.10
2023-01-22T07:32:47.256Z,17.10
2023-01-22T07:35:19.031Z,20.40
2023-01-22T07:37:56.498Z,15.20
2023-01-22T07:40:27.785Z,15.90
2023-01-22T07:43:01.054Z,18.20
2023-01-22T07:45:32.059Z,17.00
2023-01-22T07:48:05.888Z,19.80
2023-01-22T07:53:09.803Z,16.80
2023-01-22T07:55:41.856Z,17.30
2023-01-22T07:58:14.993Z,16.80
2023-01-22T08:00:46.123Z,16.20
2023-01-22T08:03:19.598Z,17.50
2023-01-22T08:05:50.814Z,17.30
2023-01-22T08:08:21.763Z,17.70
2023-01-22T08:10:52.988Z,17.30
2023-01-22T08:13:26.137Z,17.20
2023-01-22T08:18:27.142Z,18.70
2023-01-22T08:21:00.834Z,17.80
2023-01-22T08:23:31.608Z,18.30
2023-01-22T08:26:04.358Z,16.50
2023-01-22T08:28:35.308Z,18.90
2023-01-22T08:31:11.280Z,17.90
2023-01-22T08:33:47.641Z,17.00
2023-01-22T08:36:18.774Z,17.20
2023-01-22T08:38:49.814Z,16.70
2023-01-22T08:41:25.359Z,19.40
2023-01-22T08:43:56.570Z,16.70
2023-01-22T08:46:27.493Z,20.70
2023-01-22T08:48:58.341Z,18.40
2023-01-22T08:51:31.046Z,16.50
2023-01-22T08:54:03.015Z,17.80
2023-01-22T08:56:34.013Z,17.80
2023-01-22T08:59:08.211Z,16.90
2023-01-22T09:01:39.479Z,19.20
2023-01-22T09:04:11.634Z,17.90
2023-01-22T09:06:42.624Z,18.50
2023-01-22T09:09:14.218Z,16.40
2023-01-22T09:11:46.775Z,17.40
2023-01-22T09:14:17.741Z,22.50
2023-01-22T09:16:48.956Z,18.00
2023-01-22T09:19:28.582Z,17.70
2023-01-22T09:22:06.854Z,17.30
2023-01-22T09:24:37.978Z,18.20
2023-01-22T09:27:10.249Z,20.00
2023-01-22T09:29:41.082Z,19.50
2023-01-22T09:32:12.193Z,19.40
2023-01-22T09:34:42.807Z,21.70
2023-01-22T09:37:15.227Z,19.70
2023-01-22T09:39:46.105Z,17.40
2023-01-22T09:42:19.293Z,24.70
2023-01-22T09:45:02.210Z,19.30
2023-01-22T09:47:35.476Z,22.30
2023-01-22T09:50:27.617Z,19.60
2023-01-22T09:53:00.701Z,21.10
2023-01-22T09:55:32.623Z,21.00
2023-01-22T09:58:08.622Z,22.00
2023-01-22T10:00:45.758Z,17.70
2023-01-22T10:03:44.079Z,20.80
2023-01-22T10:06:30.828Z,22.40
2023-01-22T10:16:03.917Z,21.00
2023-01-22T10:19:23.180Z,20.20
2023-01-22T10:22:35.252Z,21.90
2023-01-22T10:26:25.606Z,20.50
2023-01-22T10:29:34.163Z,20.50
2023-01-22T10:32:59.685Z,20.80
2023-01-22T10:35:48.859Z,19.40
2023-01-22T10:39:07.308Z,21.50
2023-01-22T10:42:47.817Z,20.70
2023-01-22T10:45:03.656Z,23.50
2023-01-22T10:48:07.037Z,21.60
2023-01-22T10:50:38.584Z,25.40
2023-01-22T10:53:18.477Z,20.90
2023-01-22T10:55:56.642Z,22.70
2023-01-22T10:58:30.460Z,27.40
2023-01-22T11:01:02.552Z,26.80
2023-01-22T11:03:35.126Z,29.50
2023-01-22T11:06:13.097Z,32.10
2023-01-22T11:08:50.188Z,31.20
2023-01-22T11:11:23.533Z,29.60
2023-01-22T11:16:29.922Z,31.50
2023-01-22T11:19:01.993Z,29.90
2023-01-22T11:21:54.866Z,29.30
2023-01-22T11:24:57.040Z,31.70
2023-01-22T11:27:41.393Z,31.40
2023-01-22T11:39:59.616Z,29.30
2023-01-22T11:42:37.861Z,27.60
2023-01-22T11:45:15.131Z,26.80
2023-01-22T11:47:51.677Z,30.70
2023-01-22T11:50:26.908Z,30.60
2023-01-22T11:53:02.322Z,31.10
2023-01-22T11:56:03.994Z,31.80
2023-01-22T11:58:46.759Z,33.60
2023-01-22T12:01:20.857Z,38.90
2023-01-22T12:04:02.455Z,36.30
2023-01-22T12:06:43.617Z,38.10
2023-01-22T12:09:19.691Z,35.20
2023-01-22T12:11:57.782Z,39.60
2023-01-22T12:14:38.348Z,38.20
2023-01-22T12:17:19.820Z,39.30
2023-01-22T12:19:57.460Z,43.20
2023-01-22T12:22:42.434Z,39.70
2023-01-22T12:25:36.345Z,40.80
2023-01-22T12:30:42.184Z,38.20
2023-01-22T12:33:15.021Z,36.80
2023-01-22T12:35:46.365Z,33.00
2023-01-22T12:38:20.982Z,31.10
2023-01-22T12:40:58.341Z,28.90
2023-01-22T12:43:31.670Z,33.20
2023-01-22T12:56:58.048Z,38.70
2023-01-22T12:59:44.149Z,42.00
2023-01-22T13:02:37.973Z,35.80
2023-01-22T13:05:20.001Z,46.30
2023-01-22T13:08:57.320Z,43.80
2023-01-22T13:11:32.156Z,43.40
2023-01-22T13:14:17.100Z,40.50
2023-01-22T13:16:55.955Z,45.80
2023-01-22T13:19:28.707Z,39.80
2023-01-22T13:22:14.897Z,42.20
2023-01-22T13:24:51.499Z,43.40
2023-01-22T13:27:25.384Z,44.50
2023-01-22T13:30:07.276Z,45.10
2023-01-22T13:32:38.489Z,44.70
2023-01-22T13:35:13.776Z,42.00
2023-01-22T13:37:46.381Z,41.10
2023-01-22T13:40:23.652Z,44.40
2023-01-22T13:42:55.446Z,40.90
2023-01-22T13:45:30.753Z,49.60
2023-01-22T13:48:06.014Z,46.70
2023-01-22T13:50:37.017Z,46.30
2023-01-22T13:53:08.355Z,43.40
2023-01-22T13:55:39.588Z,46.40
2023-01-22T13:58:24.161Z,41.20
2023-01-22T14:00:55.834Z,45.10
2023-01-22T14:03:28.080Z,40.30
2023-01-22T14:06:06.431Z,47.10
2023-01-22T14:08:47.124Z,44.10
2023-01-22T14:11:18.273Z,42.10
2023-01-22T14:13:52.417Z,42.00
2023-01-22T14:18:52.738Z,43.10
2023-01-22T14:21:23.513Z,44.30
2023-01-22T14:23:54.985Z,38.60
2023-01-22T14:26:26.267Z,39.80
2023-01-22T14:28:57.442Z,41.70
2023-01-22T14:31:29.468Z,43.00
2023-01-22T14:34:01.040Z,44.50
2023-01-22T14:36:32.382Z,47.00
2023-01-22T14:39:06.697Z,44.70
2023-01-22T14:41:40.979Z,43.40
2023-01-22T14:44:12.162Z,39.20
2023-01-22T14:46:43.492Z,44.60
2023-01-22T14:49:14.639Z,38.50
2023-01-22T14:51:46.167Z,44.90
2023-01-22T14:54:24.894Z,40.50
2023-01-22T14:56:59.899Z,40.00
2023-01-22T14:59:30.890Z,44.00
2023-01-22T15:02:03.937Z,38.30
2023-01-22T15:04:34.807Z,42.10
2023-01-22T15:07:06.162Z,45.50
2023-01-22T15:09:37.066Z,41.70
2023-01-22T15:12:08.504Z,37.30
2023-01-22T15:14:39.526Z,38.50
2023-01-22T15:17:10.966Z,40.60
2023-01-22T15:19:42.001Z,38.50
2023-01-22T15:22:12.923Z,37.30
2023-01-22T15:24:48.066Z,34.40
2023-01-22T15:27:19.048Z,33.10
2023-01-22T15:29:50.346Z,37.50
2023-01-22T15:32:21.153Z,35.90
2023-01-22T15:34:52.030Z,41.70
2023-01-22T15:37:24.186Z,38.10
2023-01-22T15:39:54.988Z,37.90
2023-01-22T15:42:25.857Z,34.80
2023-01-22T15:44:57.611Z,37.70
2023-01-22T15:47:29.046Z,35.30
2023-01-22T15:50:00.625Z,34.70
2023-01-22T15:52:31.449Z,36.90
2023-01-22T15:55:02.904Z,32.60
2023-01-22T15:57:34.753Z,32.20
2023-01-22T16:00:06.630Z,36.30
2023-01-22T16:02:43.414Z,32.80
2023-01-22T16:05:14.375Z,38.70
2023-01-22T16:07:45.299Z,38.50
2023-01-22T16:10:18.284Z,41.00
2023-01-22T16:12:49.665Z,39.10
2023-01-22T16:15:20.586Z,32.80
2023-01-22T16:17:51.373Z,32.10
2023-01-22T16:20:27.188Z,36.20
2023-01-22T16:22:58.365Z,29.10
2023-01-22T16:25:29.294Z,35.30
2023-01-22T16:28:00.955Z,32.30
2023-01-22T16:30:31.855Z,34.30
2023-01-22T16:33:04.527Z,31.30
2023-01-22T16:35:35.605Z,30.60
2023-01-22T16:38:11.155Z,32.50
2023-01-22T16:40:42.417Z,39.60
2023-01-22T16:43:13.345Z,37.80
2023-01-22T16:45:44.813Z,38.40
2023-01-22T16:48:19.933Z,43.60
2023-01-22T16:50:51.520Z,35.80
2023-01-22T16:53:22.366Z,36.00
2023-01-22T16:55:53.690Z,39.10
2023-01-22T16:58:25.011Z,39.50
2023-01-22T17:00:56.383Z,38.10
2023-01-22T17:03:27.190Z,36.20
2023-01-22T17:06:03.247Z,40.20
2023-01-22T17:08:33.892Z,38.60
2023-01-22T17:11:06.189Z,37.40
2023-01-22T17:13:37.341Z,38.90
2023-01-22T17:16:12.467Z,34.40
2023-01-22T17:18:43.913Z,36.50
2023-01-22T17:21:15.744Z,37.50
2023-01-22T17:23:47.148Z,39.80
2023-01-22T17:26:18.247Z,40.20
2023-01-22T17:28:49.657Z,39.10
2023-01-22T17:31:22.191Z,41.30
2023-01-22T17:33:57.285Z,36.50
2023-01-22T17:36:36.620Z,41.20
2023-01-22T17:39:15.650Z,36.60
2023-01-22T17:41:46.385Z,43.00
2023-01-22T17:44:26.491Z,40.50
2023-01-22T17:47:06.801Z,40.60
2023-01-22T17:49:38.063Z,39.70
2023-01-22T17:52:09.795Z,39.00
2023-01-22T17:54:45.044Z,41.00
2023-01-22T17:57:24.780Z,37.60
2023-01-22T18:00:05.485Z,40.60
2023-01-22T18:02:39.159Z,43.20
2023-01-22T18:05:15.028Z,36.10
2023-01-22T18:07:46.595Z,38.00
2023-01-22T18:10:17.446Z,38.30
2023-01-22T18:12:49.461Z,39.00
2023-01-22T18:15:20.460Z,38.70
2023-01-22T18:17:56.853Z,39.10
2023-01-22T18:20:27.799Z,39.70
2023-01-22T18:22:58.880Z,38.10
2023-01-22T18:25:29.469Z,37.70
2023-01-22T18:28:05.603Z,38.40
2023-01-22T18:30:41.648Z,42.80
2023-01-22T18:33:14.576Z,42.80
2023-01-22T18:35:45.638Z,38.00
2023-01-22T18:38:21.675Z,42.50
2023-01-22T18:40:57.188Z,41.00
2023-01-22T18:43:28.660Z,38.30
2023-01-22T18:46:03.044Z,38.00
2023-01-22T18:48:39.443Z,40.30
2023-01-22T18:51:11.337Z,37.50
2023-01-22T18:53:43.169Z,33.50
2023-01-22T18:56:14.316Z,40.00
2023-01-22T18:58:48.512Z,34.30
2023-01-22T19:01:22.610Z,43.20
2023-01-22T19:03:55.701Z,38.00
2023-01-22T19:06:28.099Z,42.20
2023-01-22T19:09:02.944Z,41.50
2023-01-22T19:11:35.624Z,36.50
2023-01-22T19:14:16.431Z,37.50
2023-01-22T19:16:55.403Z,39.20
2023-01-22T19:19:35.192Z,40.90
2023-01-22T19:22:06.908Z,37.50
2023-01-22T19:24:37.640Z,38.20
2023-01-22T19:27:09.046Z,37.50
2023-01-22T19:29:39.935Z,38.90
2023-01-22T19:32:15.148Z,44.10
2023-01-22T19:34:45.697Z,40.30
2023-01-22T19:37:16.842Z,46.70
2023-01-22T19:39:47.386Z,35.60
2023-01-22T19:42:18.981Z,36.40
2023-01-22T19:44:49.586Z,35.30
2023-01-22T19:47:27.454Z,32.80
2023-01-22T19:49:58.492Z,33.90
2023-01-22T19:52:30.051Z,33.00
2023-01-22T19:55:11.319Z,38.40
2023-01-22T19:57:52.593Z,39.30
2023-01-22T20:00:23.675Z,38.90
2023-01-22T20:02:55.299Z,36.40
2023-01-22T20:05:26.489Z,37.40
2023-01-22T20:08:01.588Z,36.00
2023-01-22T20:10:34.046Z,44.90
2023-01-22T20:13:05.099Z,33.20
2023-01-22T20:15:43.923Z,36.30
2023-01-22T20:18:18.950Z,39.00
2023-01-22T20:31:41.549Z,42.70
2023-01-22T20:34:10.363Z,38.90
2023-01-22T20:36:38.125Z,38.00
2023-01-22T20:39:06.697Z,40.10
2023-01-22T20:41:34.780Z,37.90
2023-01-22T20:44:02.623Z,38.10
2023-01-22T20:46:30.915Z,39.90
2023-01-22T20:48:59.189Z,38.70
2023-01-22T20:51:27.930Z,43.30
2023-01-22T20:53:57.075Z,47.70
2023-01-22T20:56:28.253Z,39.80
2023-01-22T20:58:57.514Z,41.00
2023-01-22T21:01:31.109Z,38.60
2023-01-22T21:04:00.368Z,40.40
2023-01-22T21:06:29.711Z,35.90
2023-01-22T21:08:58.452Z,42.60
2023-01-22T21:11:27.906Z,38.20
2023-01-22T21:13:56.687Z,36.50
2023-01-22T21:16:26.243Z,38.70
2023-01-22T21:18:55.694Z,40.60
2023-01-22T21:21:23.978Z,38.70
2023-01-22T21:23:52.849Z,40.10
2023-01-22T21:26:22.680Z,35.10
2023-01-22T21:28:53.508Z,35.40
2023-01-22T21:31:22.035Z,38.40
2023-01-22T21:33:52.278Z,36.00
2023-01-22T21:36:21.907Z,33.90
2023-01-22T21:38:49.880Z,39.80
2023-01-22T21:41:18.676Z,35.60
2023-01-22T21:44:05.450Z,38.20
2023-01-22T21:46:34.578Z,34.90
2023-01-22T21:49:15.951Z,36.10
2023-01-22T21:51:45.455Z,36.30
2023-01-22T21:54:14.202Z,43.10
2023-01-22T21:56:43.033Z,36.80
2023-01-22T21:59:12.430Z,37.50
2023-01-22T22:01:40.639Z,39.60
2023-01-22T22:04:09.096Z,35.40
2023-01-22T22:06:37.898Z,40.60
2023-01-22T22:09:06.663Z,38.50
2023-01-22T22:11:34.580Z,36.60
2023-01-22T22:14:05.872Z,39.40
2023-01-22T22:16:34.228Z,39.00
2023-01-22T22:19:02.432Z,38.00
2023-01-22T22:21:31.115Z,37.20
2023-01-22T22:23:59.005Z,37.20
2023-01-22T22:26:27.363Z,36.30
2023-01-22T22:28:55.431Z,38.20
2023-01-22T22:31:23.778Z,39.70
2023-01-22T22:33:52.552Z,37.30
2023-01-22T22:36:22.060Z,37.10
2023-01-22T22:38:50.295Z,38.10
2023-01-22T22:41:20.368Z,35.20
2023-01-22T22:43:50.306Z,34.70
2023-01-22T22:46:19.781Z,36.60
2023-01-22T22:48:47.992Z,38.10
2023-01-22T22:51:17.543Z,39.00
2023-01-22T22:53:45.888Z,38.50
2023-01-22T22:56:14.184Z,35.40
2023-01-22T22:58:42.733Z,39.70
2023-01-22T23:01:11.517Z,39.80
2023-01-22T23:03:39.830Z,36.80
2023-01-22T23:06:11.483Z,29.90
2023-01-22T23:08:40.246Z,34.00
2023-01-22T23:11:09.638Z,32.90
2023-01-22T23:13:38.641Z,36.40
2023-01-22T23:16:07.544Z,32.50
2023-01-22T23:18:36.099Z,35.40
2023-01-22T23:21:05.192Z,29.60
2023-01-22T23:23:34.236Z,36.70
2023-01-22T23:26:02.303Z,34.70
2023-01-22T23:28:30.633Z,35.10
2023-01-22T23:31:03.730Z,33.80
2023-01-22T23:33:33.230Z,33.60
2023-01-22T23:36:01.602Z,33.10
2023-01-22T23:38:29.571Z,32.70
2023-01-22T23:40:57.957Z,33.70
2023-01-22T23:43:26.225Z,32.30
2023-01-22T23:45:54.195Z,37.90
2023-01-22T23:48:22.673Z,44.10
2023-01-22T23:50:51.282Z,36.10
2023-01-22T23:53:19.833Z,37.30
2023-01-22T23:55:48.234Z,40.10
2023-01-22T23:58:16.594Z,33.70
